Terminal Aerodrome Forecast
Issued by NWS Huntsville, AL

Home | Current Version | Previous Version | Text Only | Print | Product List | Glossary On
Versions: 1 2 3 4 5 6 7 8 9 10 11 12
000
FTUS44 KHUN 190527
TAFHSV
TAF
KHSV 190527Z 1906/2006 VRB03KT P6SM OVC200
     FM191400 05012G23KT P6SM SCT200
     FM200100 07006KT P6SM SKC=

USA.gov is the U.S. government's official web portal to all federal, state and local government web resources and services.